Time;durP1;ratioP1;P1;durP2;ratioP2;P2;SDS_P1;SDS_P2;PMS_P1;PMS_P2;Temp;Humidity;BMP_temperature;BMP_pressure;BME280_temperature;BME280_humidity;BME280_pressure;Samples;Min_cycle;Max_cycle;Signal;HPM_P1;HPM_P2
2023/12/22 00:00:35;;;;;;;29.98;17.75;;;333.00;1996.80;;;;;;5032975;28;20041;-68
2023/12/22 00:03:01;;;;;;;18.05;11.60;;;332.90;1996.80;;;;;;5032915;28;20088;-66
2023/12/22 00:08:48;;;;;;;6.88;4.15;;;332.90;1996.80;;;;;;5033134;28;20035;-62
2023/12/22 00:11:14;;;;;;;11.27;6.47;;;332.90;1996.80;;;;;;5033117;28;20017;-63
2023/12/22 00:13:40;;;;;;;8.10;4.53;;;332.80;2022.40;;;;;;5032744;28;20555;-63
2023/12/22 00:16:06;;;;;;;51.78;27.63;;;332.80;2022.40;;;;;;5033069;28;20045;-68
2023/12/22 00:18:31;;;;;;;48.83;28.98;;;332.90;1996.80;;;;;;5018536;28;20048;-66
2023/12/22 00:21:22;;;;;;;55.97;32.90;;;332.90;1996.80;;;;;;5039305;28;20021;-63
2023/12/22 00:23:48;;;;;;;50.42;30.10;;;332.90;1971.20;;;;;;5039578;28;20025;-62
2023/12/22 00:26:15;;;;;;;22.10;13.95;;;332.90;1971.20;;;;;;5044816;28;20382;-63
2023/12/22 00:28:41;;;;;;;121.60;70.97;;;332.80;1996.80;;;;;;5042638;28;20024;-64
2023/12/22 00:31:07;;;;;;;29.80;17.52;;;332.80;1996.80;;;;;;5055107;28;20036;-65
2023/12/22 00:33:33;;;;;;;40.90;24.80;;;332.80;1996.80;;;;;;5045741;28;20041;-67
2023/12/22 00:35:59;;;;;;;43.65;23.00;;;332.80;1996.80;;;;;;5054086;28;20036;-71
2023/12/22 00:38:24;;;;;;;99.72;42.35;;;308.10;1996.80;;;;;;5048332;28;20031;-62
2023/12/22 00:40:50;;;;;;;32.70;16.60;;;308.10;1996.80;;;;;;5054768;28;20092;-73
2023/12/22 00:43:16;;;;;;;17.48;10.07;;;308.10;1996.80;;;;;;5054638;28;20126;-71
2023/12/22 00:45:42;;;;;;;85.65;51.80;;;308.00;2022.40;;;;;;5049356;28;20031;-71
2023/12/22 00:48:07;;;;;;;6.43;4.78;;;308.00;2022.40;;;;;;5045650;28;20053;-64
2023/12/22 00:50:33;;;;;;;83.32;42.67;;;332.80;2022.40;;;;;;5047011;28;20022;-63
2023/12/22 00:52:59;;;;;;;165.20;80.47;;;308.10;1996.80;;;;;;5039585;28;20055;-62
2023/12/22 00:55:24;;;;;;;11.50;7.68;;;308.10;1996.80;;;;;;5037200;28;20118;-62
2023/12/22 00:57:50;;;;;;;7.68;5.00;;;308.10;1996.80;;;;;;5040113;28;20467;-62
2023/12/22 01:00:16;;;;;;;25.15;11.18;;;332.80;2022.40;;;;;;5054148;28;20032;-63
2023/12/22 01:02:42;;;;;;;57.35;25.42;;;308.10;1996.80;;;;;;5042547;28;20049;-62
2023/12/22 01:05:08;;;;;;;132.38;58.10;;;308.10;1996.80;;;;;;5037433;28;20431;-71
2023/12/22 01:07:34;;;;;;;30.75;17.38;;;308.10;2022.40;;;;;;5038841;28;20033;-68
2023/12/22 01:10:01;;;;;;;259.88;130.93;;;308.10;2022.40;;;;;;5043884;28;20039;-62
2023/12/22 01:12:28;;;;;;;221.43;140.50;;;308.10;2022.40;;;;;;5049588;28;20380;-71
2023/12/22 01:14:55;;;;;;;77.03;40.58;;;308.10;2022.40;;;;;;5053620;28;20036;-62
2023/12/22 01:17:20;;;;;;;94.10;48.85;;;308.00;1996.80;;;;;;5053547;28;20435;-62
2023/12/22 01:19:46;;;;;;;31.98;19.42;;;308.00;2022.40;;;;;;5052822;28;20053;-72
2023/12/22 01:22:12;;;;;;;36.60;24.25;;;308.10;1996.80;;;;;;5050655;28;20033;-71
2023/12/22 01:24:40;;;;;;;47.72;27.70;;;308.10;2022.40;;;;;;5055350;28;20029;-63
2023/12/22 01:27:07;;;;;;;12.57;7.20;;;332.80;2022.40;;;;;;5054695;28;20463;-71
2023/12/22 01:29:32;;;;;;;32.00;19.48;;;332.80;2048.00;;;;;;5052532;28;20029;-71
2023/12/22 01:31:58;;;;;;;71.93;42.33;;;332.80;2048.00;;;;;;5050709;28;20028;-72
2023/12/22 01:34:24;;;;;;;22.27;13.27;;;332.80;2048.00;;;;;;5051344;28;20570;-72
2023/12/22 01:36:49;;;;;;;73.72;41.97;;;332.80;2048.00;;;;;;5049841;28;20032;-72
2023/12/22 01:39:16;;;;;;;42.22;25.13;;;332.80;2048.00;;;;;;5050623;28;20051;-62
2023/12/22 01:41:42;;;;;;;32.83;18.17;;;332.80;2073.60;;;;;;5047386;28;20032;-62
2023/12/22 01:44:07;;;;;;;43.17;25.33;;;332.80;2073.60;;;;;;5051817;28;20025;-63
2023/12/22 01:46:34;;;;;;;56.28;33.45;;;332.80;2073.60;;;;;;5051931;28;20438;-63
2023/12/22 01:49:03;;;;;;;51.92;28.52;;;332.90;2099.20;;;;;;5051708;28;20021;-70
2023/12/22 01:51:33;;;;;;;6.82;4.60;;;332.80;2099.20;;;;;;5051513;28;20041;-62
2023/12/22 01:54:00;;;;;;;28.45;17.08;;;332.80;2099.20;;;;;;5041379;28;20050;-63
2023/12/22 01:56:26;;;;;;;12.13;7.82;;;332.90;2099.20;;;;;;5046419;28;20036;-62
2023/12/22 01:59:02;;;;;;;16.75;10.15;;;332.90;2124.80;;;;;;5041688;28;20029;-62
2023/12/22 02:01:28;;;;;;;20.42;11.73;;;332.90;2124.80;;;;;;5051105;28;20107;-70
2023/12/22 02:03:55;;;;;;;6.32;4.45;;;332.90;2150.40;;;;;;5044741;28;20029;-62
2023/12/22 02:06:21;;;;;;;22.17;12.82;;;332.90;2150.40;;;;;;5051408;28;20021;-71
2023/12/22 02:08:48;;;;;;;14.00;9.05;;;332.90;2150.40;;;;;;5051229;28;20017;-67
2023/12/22 02:11:16;;;;;;;10.25;6.35;;;332.90;2176.00;;;;;;5043260;28;20029;-62
2023/12/22 02:13:43;;;;;;;6.35;4.50;;;332.90;2176.00;;;;;;5046463;28;20032;-62
2023/12/22 02:16:26;;;;;;;7.75;4.50;;;332.90;2176.00;;;;;;5047917;28;20028;-72
2023/12/22 02:18:55;;;;;;;13.93;9.73;;;332.90;2176.00;;;;;;5046519;28;20021;-65
2023/12/22 02:21:21;;;;;;;26.25;12.80;;;332.80;2201.60;;;;;;5037946;28;20501;-73
2023/12/22 02:23:50;;;;;;;38.17;22.67;;;332.90;2176.00;;;;;;5051113;28;20060;-70
2023/12/22 02:26:27;;;;;;;13.48;5.80;;;332.80;2201.60;;;;;;5051037;28;20025;-63
2023/12/22 02:28:55;;;;;;;5.43;4.22;;;332.80;2201.60;;;;;;5051010;28;20057;-65
2023/12/22 02:31:36;;;;;;;11.57;6.72;;;332.80;2201.60;;;;;;5033104;28;20426;-62
2023/12/22 02:34:07;;;;;;;12.55;8.13;;;332.80;2201.60;;;;;;5050972;28;20037;-72
2023/12/22 02:36:36;;;;;;;16.52;7.45;;;332.80;2201.60;;;;;;5051384;28;20104;-62
2023/12/22 02:39:03;;;;;;;13.15;8.60;;;332.80;2201.60;;;;;;5051066;28;20032;-71
2023/12/22 02:41:29;;;;;;;5.95;3.80;;;332.80;2201.60;;;;;;5050340;28;20475;-63
2023/12/22 02:43:56;;;;;;;51.08;26.35;;;332.90;2201.60;;;;;;5050908;28;20025;-62
2023/12/22 02:46:21;;;;;;;11.75;6.30;;;332.90;2201.60;;;;;;5050866;28;20059;-62
2023/12/22 02:48:47;;;;;;;7.30;4.13;;;332.90;2201.60;;;;;;5050650;28;20060;-71
2023/12/22 02:51:13;;;;;;;9.35;5.55;;;332.80;2201.60;;;;;;5050647;28;20057;-62
2023/12/22 02:53:38;;;;;;;28.95;15.05;;;332.90;2201.60;;;;;;5049953;28;20045;-69
2023/12/22 02:56:04;;;;;;;21.67;11.50;;;332.90;2201.60;;;;;;5050711;28;20078;-70
2023/12/22 02:58:30;;;;;;;46.53;26.60;;;332.90;2201.60;;;;;;5050416;28;20028;-63
2023/12/22 03:00:56;;;;;;;7.35;4.78;;;332.90;2201.60;;;;;;5050113;28;20030;-62
2023/12/22 03:03:22;;;;;;;19.00;11.05;;;333.00;2201.60;;;;;;5050548;28;20458;-71
2023/12/22 03:05:48;;;;;;;7.28;5.22;;;333.00;2201.60;;;;;;5050070;28;20094;-70
2023/12/22 03:08:13;;;;;;;18.45;10.15;;;333.00;2201.60;;;;;;5050226;28;20021;-63
2023/12/22 03:10:39;;;;;;;24.67;9.80;;;333.00;2176.00;;;;;;5050126;28;20040;-71
2023/12/22 03:13:05;;;;;;;13.25;7.15;;;333.20;2176.00;;;;;;5050295;28;20021;-70
2023/12/22 03:15:30;;;;;;;14.52;8.98;;;333.10;2176.00;;;;;;5049935;28;20037;-65
2023/12/22 03:17:56;;;;;;;6.88;4.13;;;333.20;2176.00;;;;;;5050108;28;20018;-62
2023/12/22 03:20:22;;;;;;;5.40;3.38;;;333.20;2176.00;;;;;;5049715;28;20017;-70
2023/12/22 03:22:48;;;;;;;28.63;19.67;;;333.20;2176.00;;;;;;5049887;28;20036;-65
2023/12/22 03:25:13;;;;;;;11.82;9.18;;;333.10;2176.00;;;;;;5049932;28;20371;-65
2023/12/22 03:27:39;;;;;;;13.18;8.20;;;333.10;2176.00;;;;;;5049827;28;20116;-62
2023/12/22 03:30:05;;;;;;;52.53;28.25;;;333.10;2176.00;;;;;;5050051;28;20474;-64
2023/12/22 03:32:31;;;;;;;18.13;11.10;;;333.10;2201.60;;;;;;5050013;28;20028;-72
2023/12/22 03:34:57;;;;;;;56.03;34.83;;;333.10;2201.60;;;;;;5049383;28;20037;-62
2023/12/22 03:37:22;;;;;;;6.15;5.05;;;333.10;2201.60;;;;;;5049737;28;20021;-67
2023/12/22 03:39:48;;;;;;;13.32;9.10;;;333.10;2201.60;;;;;;5049812;28;20036;-70
2023/12/22 03:42:14;;;;;;;5.10;3.83;;;333.10;2227.20;;;;;;5050044;28;20021;-63
2023/12/22 03:44:39;;;;;;;4.65;3.20;;;333.00;2227.20;;;;;;5049229;28;20124;-64
2023/12/22 03:47:05;;;;;;;13.20;5.85;;;333.00;2227.20;;;;;;5049905;28;20036;-62
2023/12/22 03:49:31;;;;;;;6.82;3.95;;;333.00;2201.60;;;;;;5049685;28;20104;-70
2023/12/22 03:51:57;;;;;;;8.90;5.75;;;333.00;2227.20;;;;;;5048998;28;20063;-63
2023/12/22 03:54:22;;;;;;;8.15;5.88;;;333.00;2201.60;;;;;;5049195;28;20108;-70
2023/12/22 03:56:49;;;;;;;16.88;11.48;;;333.00;2201.60;;;;;;5049401;28;20044;-70
2023/12/22 03:59:18;;;;;;;16.40;8.60;;;333.00;2201.60;;;;;;5049294;28;20564;-63
2023/12/22 04:01:44;;;;;;;10.82;6.60;;;333.00;2201.60;;;;;;5049399;28;20032;-64
2023/12/22 04:04:10;;;;;;;13.52;8.50;;;333.00;2201.60;;;;;;5049327;28;20104;-63
2023/12/22 04:06:40;;;;;;;16.00;10.00;;;333.00;2201.60;;;;;;5049454;28;20021;-65
2023/12/22 04:09:05;;;;;;;14.13;8.82;;;333.10;2201.60;;;;;;5049276;28;20470;-64
2023/12/22 04:11:32;;;;;;;10.02;6.38;;;333.00;2201.60;;;;;;5049437;28;20036;-63
2023/12/22 04:13:58;;;;;;;80.50;38.53;;;333.10;2201.60;;;;;;5049128;28;20036;-70
2023/12/22 04:16:24;;;;;;;10.82;6.38;;;333.00;2227.20;;;;;;5049476;28;20116;-64
2023/12/22 04:18:49;;;;;;;20.30;11.50;;;333.00;2227.20;;;;;;5048933;28;20032;-62
2023/12/22 04:21:16;;;;;;;4.43;3.22;;;333.00;2201.60;;;;;;5049043;28;20033;-64
2023/12/22 04:23:41;;;;;;;21.13;12.77;;;333.20;2227.20;;;;;;5049221;28;20021;-63
2023/12/22 04:26:07;;;;;;;12.25;7.90;;;333.10;2252.80;;;;;;5049194;28;20183;-64
2023/12/22 04:28:33;;;;;;;8.43;4.95;;;333.00;2304.00;;;;;;5049428;28;20528;-64
2023/12/22 04:30:59;;;;;;;4.97;3.60;;;332.80;2329.60;;;;;;5035747;28;20107;-62
2023/12/22 04:33:24;;;;;;;15.73;10.63;;;308.10;2304.00;;;;;;5049237;28;20095;-62
2023/12/22 04:35:50;;;;;;;10.95;6.47;;;308.10;2304.00;;;;;;5048537;28;20360;-71
2023/12/22 04:38:16;;;;;;;15.07;9.38;;;308.00;2304.00;;;;;;5049023;28;20071;-66
2023/12/22 04:40:41;;;;;;;6.63;4.70;;;307.80;2304.00;;;;;;5048933;28;20028;-62
2023/12/22 04:43:07;;;;;;;9.48;6.55;;;307.80;2304.00;;;;;;5049071;28;20021;-71
2023/12/22 04:45:33;;;;;;;20.88;14.57;;;307.80;2304.00;;;;;;5048556;28;20071;-64
2023/12/22 04:47:59;;;;;;;25.17;14.95;;;307.80;2304.00;;;;;;5048953;28;20048;-62
2023/12/22 04:50:24;;;;;;;28.58;18.38;;;307.80;2304.00;;;;;;5049130;28;20021;-62
2023/12/22 04:52:50;;;;;;;26.73;18.60;;;307.80;2304.00;;;;;;5048466;28;20041;-70
2023/12/22 04:55:16;;;;;;;18.48;16.65;;;307.80;2304.00;;;;;;5048599;28;20402;-68
2023/12/22 04:57:41;;;;;;;20.88;14.65;;;307.50;2304.00;;;;;;5048982;28;20021;-71
2023/12/22 05:00:08;;;;;;;19.40;13.10;;;307.20;2304.00;;;;;;5048587;28;20031;-62
2023/12/22 05:02:34;;;;;;;21.27;13.90;;;307.20;2304.00;;;;;;5049029;28;20078;-63
2023/12/22 05:05:01;;;;;;;15.75;10.80;;;307.20;2304.00;;;;;;5049627;28;20025;-71
2023/12/22 05:07:27;;;;;;;14.88;11.27;;;282.40;2278.40;;;;;;5052666;28;20421;-62
2023/12/22 05:09:54;;;;;;;20.27;13.05;;;282.40;2278.40;;;;;;5052528;28;20093;-70
2023/12/22 05:12:20;;;;;;;23.23;18.05;;;282.20;2278.40;;;;;;5052353;28;20025;-70
2023/12/22 05:14:46;;;;;;;18.48;13.40;;;282.30;2278.40;;;;;;5051995;28;20029;-63
2023/12/22 05:17:11;;;;;;;70.05;46.92;;;282.40;2278.40;;;;;;5052461;28;20116;-62
2023/12/22 05:19:38;;;;;;;30.15;20.10;;;282.50;2278.40;;;;;;5038925;28;20031;-71
2023/12/22 05:22:03;;;;;;;17.52;12.25;;;282.50;2278.40;;;;;;5052350;28;20033;-65
2023/12/22 05:24:29;;;;;;;21.90;17.08;;;282.40;2278.40;;;;;;5052148;28;20504;-72
2023/12/22 05:26:55;;;;;;;18.30;11.05;;;282.50;2278.40;;;;;;5052216;28;20021;-67
2023/12/22 05:29:21;;;;;;;32.80;24.75;;;282.30;2278.40;;;;;;5052078;28;20103;-69
2023/12/22 05:31:47;;;;;;;28.55;23.25;;;282.50;2278.40;;;;;;5051877;28;20059;-69
2023/12/22 05:34:12;;;;;;;24.98;18.98;;;282.30;2278.40;;;;;;5051938;28;20431;-62
2023/12/22 05:36:38;;;;;;;32.15;20.10;;;282.30;2278.40;;;;;;5051829;28;20075;-70
2023/12/22 05:39:04;;;;;;;41.35;31.05;;;282.10;2278.40;;;;;;5052105;28;20072;-62
2023/12/22 05:41:29;;;;;;;71.47;54.05;;;282.10;2278.40;;;;;;5051808;28;20053;-71
2023/12/22 05:43:55;;;;;;;34.03;25.13;;;282.20;2278.40;;;;;;5051836;28;20364;-63
2023/12/22 05:46:21;;;;;;;45.67;30.48;;;282.00;2278.40;;;;;;5052079;28;20416;-62
2023/12/22 05:48:47;;;;;;;38.67;27.83;;;281.70;2278.40;;;;;;5051474;28;20044;-63
2023/12/22 05:51:13;;;;;;;38.40;26.17;;;281.70;2278.40;;;;;;5051838;28;20382;-62
2023/12/22 05:53:41;;;;;;;37.30;27.67;;;281.70;2278.40;;;;;;5051035;28;20184;-62
2023/12/22 05:56:22;;;;;;;26.10;21.45;;;281.80;2278.40;;;;;;5041941;28;20037;-63
2023/12/22 05:58:50;;;;;;;29.23;21.90;;;281.70;2278.40;;;;;;5046517;28;20036;-61
2023/12/22 06:01:19;;;;;;;27.73;17.80;;;256.80;2252.80;;;;;;5049616;28;20055;-70
2023/12/22 06:03:48;;;;;;;30.17;21.88;;;256.50;2252.80;;;;;;5047201;28;20079;-72
2023/12/22 06:06:14;;;;;;;28.73;19.48;;;256.60;2252.80;;;;;;5051479;28;20025;-67
2023/12/22 06:08:40;;;;;;;27.92;18.20;;;256.50;2252.80;;;;;;5045431;28;20044;-67
2023/12/22 06:11:06;;;;;;;30.00;18.60;;;256.70;2252.80;;;;;;5040238;28;20281;-71
2023/12/22 06:13:32;;;;;;;29.48;20.33;;;256.60;2252.80;;;;;;5049961;28;20484;-68
2023/12/22 06:15:57;;;;;;;31.38;21.98;;;256.70;2252.80;;;;;;5036011;28;20068;-71
2023/12/22 06:18:23;;;;;;;31.17;22.20;;;256.90;2252.80;;;;;;5038785;28;20067;-71
2023/12/22 06:20:50;;;;;;;42.25;27.48;;;256.90;2252.80;;;;;;5043929;28;20036;-62
2023/12/22 06:23:15;;;;;;;26.23;16.98;;;256.90;2252.80;;;;;;5040645;28;20033;-63
2023/12/22 06:25:41;;;;;;;19.00;14.00;;;281.60;2278.40;;;;;;5050680;28;20037;-70
2023/12/22 06:28:07;;;;;;;22.58;15.50;;;256.90;2252.80;;;;;;5051094;28;20467;-71
2023/12/22 06:30:33;;;;;;;16.52;12.50;;;281.70;2278.40;;;;;;5051123;28;20459;-71
2023/12/22 06:32:58;;;;;;;27.00;14.55;;;281.70;2278.40;;;;;;5050979;28;20036;-70
2023/12/22 06:35:25;;;;;;;22.02;15.88;;;281.70;2278.40;;;;;;5050967;28;20075;-63
2023/12/22 06:37:51;;;;;;;21.88;15.75;;;281.70;2278.40;;;;;;5047193;28;20408;-71
2023/12/22 06:40:20;;;;;;;20.23;12.63;;;281.70;2278.40;;;;;;5046865;28;20166;-66
2023/12/22 06:42:46;;;;;;;25.58;17.75;;;281.70;2278.40;;;;;;5050431;28;20386;-64
2023/12/22 06:45:12;;;;;;;24.88;16.75;;;281.80;2278.40;;;;;;5050664;28;20032;-71
2023/12/22 06:47:38;;;;;;;33.90;24.13;;;281.70;2278.40;;;;;;5050610;28;20028;-69
2023/12/22 06:50:04;;;;;;;64.70;42.33;;;256.90;2252.80;;;;;;5046397;28;20045;-70
2023/12/22 06:52:30;;;;;;;36.70;26.05;;;256.90;2252.80;;;;;;5044470;28;20103;-71
2023/12/22 06:54:56;;;;;;;34.20;24.30;;;256.90;2252.80;;;;;;5042816;28;20069;-68
2023/12/22 06:57:22;;;;;;;29.17;17.60;;;281.60;2278.40;;;;;;5046156;28;20100;-71
2023/12/22 06:59:50;;;;;;;30.92;22.27;;;256.90;2252.80;;;;;;5050326;28;20427;-62
2023/12/22 07:02:16;;;;;;;32.70;26.30;;;256.90;2252.80;;;;;;5050316;28;20053;-63
2023/12/22 07:05:20;;;;;;;46.50;32.20;;;256.90;2252.80;;;;;;5050757;28;20109;-71
2023/12/22 07:07:46;;;;;;;18.75;15.13;;;256.90;2252.80;;;;;;5037893;28;20025;-62
2023/12/22 07:10:12;;;;;;;15.18;11.23;;;256.80;2252.80;;;;;;5050393;28;20036;-71
2023/12/22 07:12:39;;;;;;;17.15;12.07;;;256.70;2252.80;;;;;;5044974;28;20105;-63
2023/12/22 07:15:06;;;;;;;20.48;16.35;;;256.60;2252.80;;;;;;5039862;28;20386;-63
2023/12/22 07:17:33;;;;;;;17.10;14.00;;;256.50;2252.80;;;;;;5050269;28;20078;-71
2023/12/22 07:19:58;;;;;;;20.88;14.50;;;256.60;2252.80;;;;;;5050130;28;20110;-71
2023/12/22 07:22:24;;;;;;;26.48;19.80;;;256.60;2252.80;;;;;;5049804;28;20051;-68
2023/12/22 07:24:52;;;;;;;22.45;17.27;;;256.20;2252.80;;;;;;5049852;28;20083;-72
2023/12/22 07:27:18;;;;;;;17.98;14.90;;;256.60;2252.80;;;;;;5048842;28;20025;-62
2023/12/22 07:29:44;;;;;;;46.40;31.58;;;256.40;2252.80;;;;;;5049844;28;20044;-63
2023/12/22 07:32:09;;;;;;;29.75;23.23;;;256.40;2252.80;;;;;;5049559;28;20020;-62
2023/12/22 07:34:35;;;;;;;32.50;25.98;;;256.50;2252.80;;;;;;5049881;28;20040;-72
2023/12/22 07:37:01;;;;;;;16.63;12.90;;;256.50;2252.80;;;;;;5049808;28;20020;-62
2023/12/22 07:39:27;;;;;;;28.92;25.85;;;256.40;2252.80;;;;;;5049659;28;20108;-62
2023/12/22 07:41:53;;;;;;;24.55;19.92;;;256.30;2252.80;;;;;;5049894;28;20052;-66
2023/12/22 07:44:18;;;;;;;21.35;14.73;;;256.20;2252.80;;;;;;5049430;28;20029;-69
2023/12/22 07:46:44;;;;;;;16.38;13.82;;;256.20;2252.80;;;;;;5041329;28;20058;-64
2023/12/22 07:49:10;;;;;;;27.42;21.45;;;256.10;2252.80;;;;;;5040907;28;20445;-65
2023/12/22 07:51:36;;;;;;;17.83;15.43;;;256.00;2252.80;;;;;;5049512;28;20075;-64
2023/12/22 07:54:01;;;;;;;33.00;25.55;;;231.30;2252.80;;;;;;5049097;28;20045;-71
2023/12/22 07:56:27;;;;;;;31.42;24.05;;;231.30;2252.80;;;;;;5045769;28;20033;-71
2023/12/22 07:58:53;;;;;;;25.42;18.95;;;256.00;2252.80;;;;;;5042860;28;20017;-61
2023/12/22 08:01:19;;;;;;;29.92;21.27;;;231.30;2252.80;;;;;;5045709;28;20093;-66
2023/12/22 08:03:44;;;;;;;13.82;9.63;;;231.30;2252.80;;;;;;5041628;28;20022;-70
2023/12/22 08:06:10;;;;;;;17.00;15.20;;;231.20;2252.80;;;;;;5045115;28;20029;-62
2023/12/22 08:08:36;;;;;;;17.90;15.20;;;231.20;2252.80;;;;;;5044919;28;20474;-63
2023/12/22 08:11:02;;;;;;;19.63;16.75;;;231.30;2252.80;;;;;;5049597;28;20119;-71
2023/12/22 08:13:28;;;;;;;28.45;24.52;;;231.30;2252.80;;;;;;5049091;28;20052;-62
2023/12/22 08:15:54;;;;;;;52.70;37.42;;;256.00;2252.80;;;;;;5049182;28;20506;-70
2023/12/22 08:18:19;;;;;;;19.08;13.82;;;256.10;2252.80;;;;;;5053851;28;20529;-70
2023/12/22 08:20:45;;;;;;;26.50;23.67;;;256.20;2252.80;;;;;;5058162;28;20029;-65
2023/12/22 08:23:12;;;;;;;52.70;42.95;;;256.30;2252.80;;;;;;5049096;28;20108;-61
2023/12/22 08:25:39;;;;;;;65.40;47.47;;;256.70;2252.80;;;;;;5049025;28;20029;-62
2023/12/22 08:28:05;;;;;;;43.38;33.53;;;281.70;2278.40;;;;;;5049355;28;20040;-61
2023/12/22 08:30:31;;;;;;;34.25;26.63;;;281.70;2278.40;;;;;;5049204;28;20471;-61
2023/12/22 08:32:56;;;;;;;13.95;11.23;;;281.70;2278.40;;;;;;5049165;28;20049;-62
2023/12/22 08:35:22;;;;;;;16.15;13.23;;;281.70;2278.40;;;;;;5049286;28;20590;-61
2023/12/22 08:37:48;;;;;;;32.05;26.98;;;256.90;2252.80;;;;;;5049085;28;20021;-62
2023/12/22 08:40:14;;;;;;;26.85;20.52;;;256.70;2252.80;;;;;;5051971;28;20025;-61
2023/12/22 08:42:39;;;;;;;16.77;13.30;;;256.80;2252.80;;;;;;5053376;28;20025;-62
2023/12/22 08:45:06;;;;;;;19.90;16.90;;;256.70;2252.80;;;;;;5053290;28;20468;-61
2023/12/22 08:47:32;;;;;;;17.80;14.98;;;256.70;2252.80;;;;;;5053272;28;20067;-60
2023/12/22 08:49:57;;;;;;;39.47;29.60;;;256.80;2252.80;;;;;;5052930;28;20022;-62
2023/12/22 08:52:23;;;;;;;23.00;18.83;;;256.90;2252.80;;;;;;5052774;28;20400;-61
2023/12/22 08:54:49;;;;;;;109.70;69.07;;;256.90;2252.80;;;;;;5052823;28;20842;-69
2023/12/22 08:57:14;;;;;;;28.08;19.73;;;281.80;2278.40;;;;;;5052843;28;20175;-68
2023/12/22 08:59:40;;;;;;;30.52;24.63;;;282.00;2278.40;;;;;;5052567;28;20057;-72
2023/12/22 09:02:06;;;;;;;14.38;12.63;;;281.90;2278.40;;;;;;5052860;28;20496;-63
2023/12/22 09:04:32;;;;;;;12.77;9.95;;;282.00;2278.40;;;;;;5052763;28;20035;-69
2023/12/22 09:06:57;;;;;;;10.27;7.78;;;281.80;2278.40;;;;;;5052498;28;20032;-63
2023/12/22 09:09:24;;;;;;;89.80;61.03;;;281.80;2278.40;;;;;;5052865;28;20028;-64
2023/12/22 09:11:50;;;;;;;31.60;24.40;;;281.80;2278.40;;;;;;5052395;28;20048;-67
2023/12/22 09:14:16;;;;;;;17.70;13.15;;;281.70;2278.40;;;;;;5052231;28;20110;-68
2023/12/22 09:16:44;;;;;;;20.35;18.05;;;281.60;2278.40;;;;;;5052927;28;20035;-74
2023/12/22 09:19:10;;;;;;;10.50;8.38;;;281.60;2278.40;;;;;;5052495;28;20025;-62
2023/12/22 09:21:35;;;;;;;14.13;12.77;;;256.90;2252.80;;;;;;5052252;28;20360;-64
2023/12/22 09:24:01;;;;;;;14.10;12.60;;;256.90;2252.80;;;;;;5052168;28;20021;-72
2023/12/22 09:26:27;;;;;;;11.73;8.10;;;256.90;2252.80;;;;;;5052247;28;20025;-62
2023/12/22 09:28:55;;;;;;;16.85;11.40;;;256.90;2252.80;;;;;;5052403;28;20020;-69
2023/12/22 09:31:22;;;;;;;8.38;4.97;;;256.90;2252.80;;;;;;5052288;28;20039;-73
2023/12/22 09:33:48;;;;;;;14.00;8.70;;;281.60;2278.40;;;;;;5052362;28;20021;-66
2023/12/22 09:36:14;;;;;;;13.45;9.38;;;281.70;2278.40;;;;;;5052146;28;20059;-71
2023/12/22 09:38:41;;;;;;;16.00;9.63;;;256.90;2252.80;;;;;;5051783;28;20017;-72
2023/12/22 09:41:07;;;;;;;24.30;17.00;;;281.70;2278.40;;;;;;5051834;28;20091;-64
2023/12/22 09:43:36;;;;;;;17.02;12.55;;;281.70;2278.40;;;;;;5052358;28;20017;-68
2023/12/22 09:46:04;;;;;;;5.50;4.15;;;281.70;2278.40;;;;;;5051891;28;20051;-73
2023/12/22 09:48:31;;;;;;;10.65;8.10;;;281.90;2278.40;;;;;;5051853;28;20078;-64
2023/12/22 09:50:58;;;;;;;9.95;7.40;;;282.00;2278.40;;;;;;5051113;28;20029;-62
2023/12/22 09:53:26;;;;;;;7.80;5.05;;;282.00;2278.40;;;;;;5051328;28;20427;-63
2023/12/22 09:55:54;;;;;;;8.25;5.15;;;282.00;2278.40;;;;;;5051936;28;20058;-63
2023/12/22 09:58:20;;;;;;;8.15;4.85;;;282.00;2278.40;;;;;;5051441;28;20455;-71
2023/12/22 10:00:47;;;;;;;7.18;4.47;;;282.00;2278.40;;;;;;5051816;28;20057;-64
2023/12/22 10:03:15;;;;;;;7.25;4.90;;;281.90;2278.40;;;;;;5051854;28;20008;-73
2023/12/22 10:05:41;;;;;;;55.92;36.97;;;282.00;2278.40;;;;;;5051526;28;20033;-70
2023/12/22 10:08:12;;;;;;;11.82;8.73;;;282.00;2278.40;;;;;;5051433;28;20020;-72
2023/12/22 10:10:43;;;;;;;65.53;40.50;;;282.00;2278.40;;;;;;5051636;28;20024;-62
2023/12/22 10:13:10;;;;;;;11.80;8.73;;;282.00;2278.40;;;;;;5051390;28;20490;-62
2023/12/22 10:15:41;;;;;;;13.02;10.32;;;282.00;2278.40;;;;;;5051388;28;20048;-63
2023/12/22 10:18:07;;;;;;;5.90;4.32;;;282.00;2278.40;;;;;;5044538;28;20387;-62
2023/12/22 10:20:32;;;;;;;7.07;5.32;;;282.00;2278.40;;;;;;5047170;28;20025;-72
2023/12/22 10:22:58;;;;;;;7.13;5.00;;;282.00;2278.40;;;;;;5042739;28;20048;-72
2023/12/22 10:25:32;;;;;;;17.02;12.98;;;282.00;2278.40;;;;;;5040394;28;20041;-66
2023/12/22 10:27:58;;;;;;;9.85;6.03;;;282.00;2278.40;;;;;;5051011;28;20024;-63
2023/12/22 10:30:24;;;;;;;14.52;8.05;;;282.10;2278.40;;;;;;5051155;28;20075;-66
2023/12/22 10:32:53;;;;;;;12.55;9.10;;;282.20;2278.40;;;;;;5051031;28;20017;-74
2023/12/22 10:35:23;;;;;;;11.43;8.50;;;282.40;2278.40;;;;;;5051132;28;20533;-73
2023/12/22 10:37:53;;;;;;;14.07;10.35;;;307.20;2304.00;;;;;;5050959;28;20048;-62
2023/12/22 10:40:19;;;;;;;8.23;5.25;;;307.30;2304.00;;;;;;5050518;28;20108;-73
2023/12/22 10:42:45;;;;;;;11.43;8.10;;;307.30;2304.00;;;;;;5050911;28;20025;-73
2023/12/22 10:45:13;;;;;;;7.95;5.32;;;307.20;2304.00;;;;;;5050764;28;20467;-73
2023/12/22 10:47:42;;;;;;;9.65;8.50;;;307.30;2304.00;;;;;;5040018;28;20079;-69
2023/12/22 10:50:08;;;;;;;11.68;6.10;;;307.20;2304.00;;;;;;5035021;28;20056;-71
2023/12/22 10:52:34;;;;;;;24.83;18.63;;;307.30;2304.00;;;;;;5041913;28;20558;-71
2023/12/22 10:55:00;;;;;;;7.82;6.05;;;307.40;2304.00;;;;;;5033889;28;20045;-73
2023/12/22 10:57:37;;;;;;;11.35;7.47;;;307.30;2304.00;;;;;;5037403;28;20386;-65
2023/12/22 11:00:05;;;;;;;10.18;6.13;;;307.20;2304.00;;;;;;5035006;28;20033;-73
2023/12/22 11:02:32;;;;;;;17.70;13.80;;;282.40;2278.40;;;;;;5041431;28;20036;-71
2023/12/22 11:05:10;;;;;;;17.50;10.45;;;282.20;2278.40;;;;;;5035103;28;20048;-73
2023/12/22 11:07:37;;;;;;;50.20;37.95;;;282.20;2278.40;;;;;;5040626;28;20556;-71
2023/12/22 11:10:06;;;;;;;33.67;21.77;;;282.10;2278.40;;;;;;5037827;28;20040;-73
2023/12/22 11:12:38;;;;;;;20.15;14.02;;;282.10;2278.40;;;;;;5049925;28;20028;-74
2023/12/22 11:15:06;;;;;;;15.80;11.02;;;282.10;2278.40;;;;;;5040757;28;20045;-72
2023/12/22 11:17:34;;;;;;;17.42;13.52;;;282.00;2278.40;;;;;;5045636;28;20025;-75
2023/12/22 11:20:00;;;;;;;24.20;14.60;;;282.00;2278.40;;;;;;5042497;28;20021;-73
2023/12/22 11:22:26;;;;;;;20.88;12.90;;;282.10;2278.40;;;;;;5032250;28;20075;-72
2023/12/22 11:24:53;;;;;;;13.57;8.82;;;282.20;2278.40;;;;;;5039611;28;20068;-74
2023/12/22 11:27:20;;;;;;;14.65;10.27;;;282.20;2278.40;;;;;;5036066;28;20027;-73
2023/12/22 11:29:51;;;;;;;8.65;5.82;;;282.30;2278.40;;;;;;5040271;28;20065;-73
2023/12/22 11:32:18;;;;;;;11.18;5.10;;;282.30;2278.40;;;;;;5034004;28;20021;-71
2023/12/22 11:34:46;;;;;;;14.70;10.35;;;282.30;2278.40;;;;;;5033827;28;20151;-71
2023/12/22 11:37:13;;;;;;;8.15;4.78;;;282.50;2278.40;;;;;;5037016;28;20036;-73
2023/12/22 11:39:40;;;;;;;10.05;6.82;;;282.50;2278.40;;;;;;5036765;28;20083;-72
2023/12/22 11:42:16;;;;;;;6.90;4.25;;;282.40;2278.40;;;;;;5038104;28;20042;-64
2023/12/22 11:44:42;;;;;;;9.30;6.50;;;282.30;2278.40;;;;;;5043791;28;20088;-74
2023/12/22 11:47:09;;;;;;;14.35;10.25;;;282.50;2278.40;;;;;;5032320;28;20486;-73
2023/12/22 11:49:38;;;;;;;10.20;5.88;;;282.40;2252.80;;;;;;5041112;28;20028;-74
2023/12/22 11:52:14;;;;;;;13.20;9.13;;;282.30;2278.40;;;;;;5038334;28;20473;-74
2023/12/22 11:54:51;;;;;;;10.52;5.60;;;282.40;2278.40;;;;;;5033279;28;20143;-74
2023/12/22 11:57:31;;;;;;;20.20;12.50;;;282.40;2278.40;;;;;;5038497;28;20027;-68
2023/12/22 12:00:01;;;;;;;32.92;22.35;;;282.50;2252.80;;;;;;5038366;28;20410;-71
2023/12/22 12:02:27;;;;;;;17.23;10.82;;;282.20;2278.40;;;;;;5039010;28;20072;-70
2023/12/22 12:04:57;;;;;;;6.57;5.07;;;282.30;2278.40;;;;;;5038532;28;20095;-74